Time;durP1;ratioP1;P1;durP2;ratioP2;P2;SDS_P1;SDS_P2;PMS_P1;PMS_P2;Temp;Humidity;BMP_temperature;BMP_pressure;BME280_temperature;BME280_humidity;BME280_pressure;Samples;Min_cycle;Max_cycle;Signal;HPM_P1;HPM_P2
2023/06/12 00:02:41;;;;;;;6.55;5.70;;;;;;;23.71;41.21;99734.88;4777042;28;3547673;-87
2023/06/12 00:05:21;;;;;;;6.15;5.03;;;;;;;23.73;41.29;99711.94;4852951;28;20051;-87
2023/06/12 00:08:08;;;;;;;7.22;6.22;;;;;;;23.69;41.42;99720.75;4857165;28;20055;-87
2023/06/12 00:10:56;;;;;;;6.47;5.80;;;;;;;23.58;41.70;99725.00;4875265;28;20047;-87
2023/06/12 00:13:33;;;;;;;6.53;5.80;;;;;;;23.54;41.68;99726.53;4880067;28;20078;-87
2023/06/12 00:16:12;;;;;;;7.88;5.43;;;;;;;23.55;41.97;99728.16;4883154;28;20070;-87
2023/06/12 00:18:55;;;;;;;7.43;6.18;;;;;;;23.47;42.45;99729.28;4868621;28;20082;-87
2023/06/12 00:21:35;;;;;;;6.30;5.70;;;;;;;23.43;42.20;99717.22;4888667;28;20039;-87
2023/06/12 00:24:08;;;;;;;7.90;5.93;;;;;;;23.42;42.28;99729.13;4855520;28;20043;-86
2023/06/12 00:27:01;;;;;;;7.13;6.05;;;;;;;23.31;42.74;99724.44;4859793;28;20418;-87
2023/06/12 00:29:42;;;;;;;7.85;6.00;;;;;;;23.37;42.58;99718.13;4847279;28;20058;-87
2023/06/12 00:32:21;;;;;;;6.80;6.07;;;;;;;23.32;42.66;99723.38;4916428;28;20039;-87
2023/06/12 00:34:57;;;;;;;7.28;5.75;;;;;;;23.34;42.50;99729.41;4882909;28;20046;-86
2023/06/12 00:38:11;;;;;;;6.93;6.15;;;;;;;23.19;43.23;99716.19;4847455;28;20063;-87
2023/06/12 00:40:56;;;;;;;6.70;5.82;;;;;;;23.27;43.06;99720.50;4865919;28;23199;-87
2023/06/12 00:43:39;;;;;;;10.73;6.53;;;;;;;23.21;43.08;99727.66;4845347;28;20051;-87
2023/06/12 00:46:38;;;;;;;6.20;5.60;;;;;;;23.20;42.86;99723.25;4888271;28;21052;-87
2023/06/12 00:49:33;;;;;;;7.38;5.72;;;;;;;23.15;43.14;99726.66;4884104;28;20563;-87
2023/06/12 00:52:19;;;;;;;6.68;5.72;;;;;;;23.19;43.01;99727.03;4900408;28;20050;-87
2023/06/12 00:55:01;;;;;;;6.93;5.68;;;;;;;23.00;43.57;99734.28;4909948;28;20113;-87
2023/06/12 00:57:42;;;;;;;6.82;6.13;;;;;;;23.14;43.15;99735.00;4858839;28;20086;-87
2023/06/12 01:00:18;;;;;;;6.43;5.82;;;;;;;23.02;43.09;99731.31;4852463;28;20083;-87
2023/06/12 01:03:04;;;;;;;6.38;5.13;;;;;;;23.03;43.28;99733.81;4844757;29;20180;-87
2023/06/12 01:05:38;;;;;;;7.72;5.72;;;;;;;23.00;43.09;99728.00;4865602;28;20090;-87
2023/06/12 01:08:37;;;;;;;7.15;5.70;;;;;;;23.00;43.23;99725.28;4876313;28;20071;-88
2023/06/12 01:11:12;;;;;;;5.80;5.30;;;;;;;22.92;43.14;99734.47;4928032;28;20779;-87
2023/06/12 01:13:45;;;;;;;7.55;5.60;;;;;;;22.88;43.64;99739.50;4891991;28;20058;-86
2023/06/12 01:16:28;;;;;;;6.10;5.38;;;;;;;22.94;43.36;99735.91;4882980;28;20066;-87
2023/06/12 01:19:09;;;;;;;6.97;5.68;;;;;;;22.80;43.27;99736.25;4881606;28;20050;-88
2023/06/12 01:21:41;;;;;;;7.43;5.40;;;;;;;22.85;43.00;99731.00;4819313;28;20051;-86
2023/06/12 01:24:53;;;;;;;6.03;5.43;;;;;;;22.91;43.06;99736.38;4841724;28;20071;-86
2023/06/12 01:28:00;;;;;;;7.53;5.82;;;;;;;22.72;43.13;99738.16;4893443;28;20045;-87
2023/06/12 01:30:36;;;;;;;;;;;;;;;22.42;44.25;99745.19;4900139;28;20073;-86
2023/06/12 01:33:21;;;;;;;6.78;5.57;;;;;;;22.74;43.38;99738.78;4873278;28;20293;-86
2023/06/12 01:35:59;;;;;;;5.95;5.13;;;;;;;22.75;43.34;99743.13;4912850;28;20047;-86
2023/06/12 01:38:43;;;;;;;7.45;5.85;;;;;;;22.69;43.09;99737.75;4868577;28;20047;-86
2023/06/12 01:41:28;;;;;;;5.82;5.20;;;;;;;22.64;43.57;99743.81;4909678;28;20066;-87
2023/06/12 01:44:11;;;;;;;6.30;5.30;;;;;;;22.61;43.51;99738.00;4870633;28;21040;-86
2023/06/12 01:46:48;;;;;;;6.75;5.35;;;;;;;22.78;42.86;99731.03;4841428;28;20130;-87
2023/06/12 01:49:24;;;;;;;6.22;5.65;;;;;;;22.81;42.65;99737.91;4871537;28;20074;-87
2023/06/12 01:52:13;;;;;;;6.13;5.53;;;;;;;22.71;42.83;99731.06;4896978;28;20044;-86
2023/06/12 01:55:14;;;;;;;5.78;5.28;;;;;;;22.72;42.93;99735.47;4852773;28;20047;-87
2023/06/12 01:57:54;;;;;;;8.02;5.70;;;;;;;22.69;42.84;99727.75;4855216;28;20047;-87
2023/06/12 02:00:50;;;;;;;5.70;5.20;;;;;;;22.60;43.11;99730.94;4925253;28;20044;-86
2023/06/12 02:03:45;;;;;;;6.90;5.53;;;;;;;22.57;43.31;99728.66;4860130;28;20055;-87
2023/06/12 02:06:30;;;;;;;7.28;5.72;;;;;;;22.58;42.98;99728.44;4869919;28;20046;-87
2023/06/12 02:09:12;;;;;;;5.70;5.20;;;;;;;22.51;43.17;99738.47;4886989;28;20046;-86
2023/06/12 02:11:56;;;;;;;6.60;5.68;;;;;;;22.46;43.45;99741.81;4880119;28;20039;-87
2023/06/12 02:14:31;;;;;;;6.53;5.40;;;;;;;22.45;43.73;99744.75;4851295;28;20075;-86
2023/06/12 02:17:02;;;;;;;5.78;5.28;;;;;;;22.41;44.73;99743.53;4876079;28;20494;-89
2023/06/12 02:19:47;;;;;;;6.80;6.10;;;;;;;22.40;44.72;99748.09;4860857;28;20051;-87
2023/06/12 02:22:42;;;;;;;6.45;5.55;;;;;;;22.21;45.37;99744.47;4865680;28;20405;-87
2023/06/12 02:25:26;;;;;;;5.72;5.13;;;;;;;22.42;44.23;99751.44;4897939;28;20082;-86
2023/06/12 02:28:15;;;;;;;6.18;5.57;;;;;;;22.33;44.73;99750.84;4890536;28;20047;-86
2023/06/12 02:31:20;;;;;;;;;;;;;;;21.87;46.44;99749.06;4879981;28;20051;-86
2023/06/12 02:37:18;;;;;;;6.40;5.80;;;;;;;22.07;45.78;99753.63;4875071;28;20269;-86
2023/06/12 02:40:09;;;;;;;6.38;5.35;;;;;;;22.00;46.28;99750.91;4875191;28;20102;-87
2023/06/12 02:42:53;;;;;;;6.85;5.35;;;;;;;22.08;46.13;99748.00;4851131;28;20122;-86
2023/06/12 02:46:40;;;;;;;6.82;5.15;;;;;;;21.86;46.77;99755.53;4844731;28;20070;-86
2023/06/12 02:49:56;;;;;;;7.05;5.68;;;;;;;22.02;46.56;99750.72;4840681;28;20043;-87
2023/06/12 02:53:35;;;;;;;6.20;5.60;;;;;;;21.99;46.32;99754.69;4825238;28;20620;-86
2023/06/12 03:09:10;;;;;;;8.52;6.13;;;;;;;21.77;46.42;99748.69;4718969;29;19928;-87
2023/06/12 03:11:38;;;;;;;6.88;6.13;;;;;;;21.91;45.69;99754.09;4834102;29;20137;-86
2023/06/12 03:14:07;;;;;;;8.40;5.50;;;;;;;21.88;45.48;99750.75;4860137;29;20097;-85
2023/06/12 03:16:34;;;;;;;6.03;5.47;;;;;;;21.87;45.51;99759.88;4864491;29;20116;-86
2023/06/12 03:19:02;;;;;;;6.00;5.40;;;;;;;21.91;45.58;99756.78;4859693;29;20060;-86
2023/06/12 03:21:28;;;;;;;6.20;5.40;;;;;;;21.89;45.20;99757.81;4847274;29;20752;-85
2023/06/12 03:23:56;;;;;;;7.45;6.10;;;;;;;21.92;44.93;99759.25;4862346;29;20060;-86
2023/06/12 03:26:23;;;;;;;7.75;5.90;;;;;;;21.94;44.88;99761.78;4875308;29;20535;-86
2023/06/12 03:28:50;;;;;;;6.55;5.72;;;;;;;21.92;44.71;99764.66;4857822;29;20079;-86
2023/06/12 03:31:17;;;;;;;7.55;5.78;;;;;;;21.86;45.41;99763.66;4858355;29;20067;-85
2023/06/12 03:33:44;;;;;;;7.65;6.18;;;;;;;21.92;45.32;99769.25;4880156;29;20111;-86
2023/06/12 03:36:14;;;;;;;7.22;6.10;;;;;;;21.87;45.28;99768.00;4882751;29;20044;-87
2023/06/12 03:38:40;;;;;;;6.75;5.75;;;;;;;21.91;45.11;99779.25;4886539;29;20131;-86
2023/06/12 03:41:07;;;;;;;6.82;6.10;;;;;;;21.86;45.08;99774.47;4856960;29;20052;-86
2023/06/12 03:43:35;;;;;;;7.32;6.45;;;;;;;21.98;45.07;99776.50;4851803;29;20508;-86
2023/06/12 03:46:02;;;;;;;9.68;6.47;;;;;;;21.98;45.36;99773.81;4932573;28;20640;-87
2023/06/12 03:48:29;;;;;;;6.90;5.85;;;;;;;22.04;45.39;99781.91;4958871;28;20055;-86
2023/06/12 03:50:59;;;;;;;11.57;6.50;;;;;;;22.14;45.34;99783.34;4900061;28;20113;-87
2023/06/12 03:53:26;;;;;;;7.43;6.53;;;;;;;22.30;45.69;99793.72;4902479;28;20133;-87
2023/06/12 03:55:53;;;;;;;7.00;6.40;;;;;;;22.54;45.96;99798.44;4921063;28;20043;-86
2023/06/12 03:58:20;;;;;;;9.45;6.53;;;;;;;23.06;45.38;99792.13;4938559;28;20093;-87
2023/06/12 04:00:47;;;;;;;7.05;6.35;;;;;;;23.79;43.91;99794.31;4952695;28;20053;-85
2023/06/12 04:03:17;;;;;;;7.38;6.50;;;;;;;24.55;42.01;99806.66;4929329;28;20055;-88
2023/06/12 04:05:45;;;;;;;9.10;6.78;;;;;;;24.91;41.09;99804.91;4925670;28;20051;-87
2023/06/12 04:08:12;;;;;;;8.20;7.13;;;;;;;24.81;40.80;99804.66;4922356;28;20126;-87
2023/06/12 04:10:40;;;;;;;7.30;6.22;;;;;;;24.59;41.52;99815.97;4944676;28;20054;-87
2023/06/12 04:13:09;;;;;;;7.97;6.70;;;;;;;24.28;42.24;99822.38;4945158;28;20466;-87
2023/06/12 04:15:37;;;;;;;8.07;6.32;;;;;;;24.15;42.65;99823.34;4914226;28;20047;-87
2023/06/12 04:18:04;;;;;;;9.55;6.43;;;;;;;24.04;42.66;99832.22;4916723;28;20105;-87
2023/06/12 04:20:34;;;;;;;8.95;6.45;;;;;;;24.04;42.79;99824.06;4917690;28;20078;-86
2023/06/12 04:23:05;;;;;;;6.30;5.70;;;;;;;23.97;42.09;99831.47;4936423;28;20051;-87
2023/06/12 04:25:36;;;;;;;7.88;6.75;;;;;;;23.88;43.07;99833.63;4927094;28;20051;-87
2023/06/12 04:28:03;;;;;;;9.23;5.93;;;;;;;23.81;42.84;99830.13;4941235;28;20114;-87
2023/06/12 04:30:33;;;;;;;8.32;6.60;;;;;;;23.75;42.90;99822.91;4934115;28;20055;-87
2023/06/12 04:33:01;;;;;;;9.82;7.15;;;;;;;23.79;43.10;99830.38;4935276;28;20463;-87
2023/06/12 04:35:28;;;;;;;10.25;6.90;;;;;;;23.76;42.84;99824.56;4944530;28;20048;-87
2023/06/12 04:37:55;;;;;;;10.27;6.30;;;;;;;23.78;42.63;99833.28;4915468;28;20044;-87
2023/06/12 04:40:24;;;;;;;9.77;6.95;;;;;;;23.70;42.24;99839.81;4928623;28;20047;-86
2023/06/12 04:42:56;;;;;;;7.85;6.57;;;;;;;23.71;42.63;99840.63;4951012;28;20053;-87
2023/06/12 04:45:24;;;;;;;7.45;6.10;;;;;;;23.68;42.92;99841.91;4930621;28;20431;-86
2023/06/12 04:47:51;;;;;;;7.25;5.82;;;;;;;23.62;42.10;99835.47;4955921;28;20054;-87
2023/06/12 04:50:18;;;;;;;7.32;6.22;;;;;;;23.58;41.79;99845.13;4933333;28;20179;-88
2023/06/12 04:52:48;;;;;;;8.43;6.13;;;;;;;23.59;42.04;99843.25;4921694;28;20048;-87
2023/06/12 04:55:20;;;;;;;6.65;5.90;;;;;;;23.58;42.07;99844.28;4944508;28;20084;-87
2023/06/12 04:57:52;;;;;;;8.77;5.68;;;;;;;23.53;41.43;99839.50;4918407;28;20058;-87
2023/06/12 05:00:23;;;;;;;6.45;5.45;;;;;;;23.50;41.22;99841.84;4933523;28;20055;-87
2023/06/12 05:02:50;;;;;;;7.68;5.93;;;;;;;23.47;41.49;99840.41;4920311;28;20052;-87
2023/06/12 05:05:19;;;;;;;7.07;6.38;;;;;;;23.43;41.51;99836.47;4945532;28;20110;-87
2023/06/12 05:07:47;;;;;;;10.45;5.88;;;;;;;23.39;41.41;99832.53;4947675;28;20047;-87
2023/06/12 05:10:15;;;;;;;9.57;5.93;;;;;;;23.39;41.50;99830.66;4913676;28;20059;-88
2023/06/12 05:12:42;;;;;;;6.65;6.05;;;;;;;23.46;41.00;99836.03;4935701;28;20699;-87
2023/06/12 05:15:09;;;;;;;7.63;5.95;;;;;;;23.42;40.71;99842.94;4958815;28;20059;-87
2023/06/12 05:17:37;;;;;;;7.07;6.30;;;;;;;23.36;39.76;99830.28;4928639;28;20051;-88
2023/06/12 05:20:08;;;;;;;7.40;6.63;;;;;;;23.35;40.39;99839.44;4929739;28;20066;-87
2023/06/12 05:22:36;;;;;;;6.50;5.90;;;;;;;23.36;40.61;99839.22;4961866;28;20051;-88
2023/06/12 05:25:04;;;;;;;6.80;6.05;;;;;;;23.36;40.15;99841.13;4944934;28;20043;-87
2023/06/12 05:27:32;;;;;;;6.38;5.68;;;;;;;23.39;40.43;99844.22;4948440;28;20409;-87
2023/06/12 05:30:00;;;;;;;6.70;6.00;;;;;;;23.40;40.08;99845.03;4933584;28;20063;-86
2023/06/12 05:32:28;;;;;;;6.43;5.80;;;;;;;23.43;40.06;99836.47;4932428;28;20057;-88
2023/06/12 05:34:55;;;;;;;10.30;6.13;;;;;;;23.43;40.51;99835.63;4932688;28;20598;-87
2023/06/12 05:37:22;;;;;;;6.93;5.97;;;;;;;23.41;40.74;99835.88;4963812;28;20047;-88
2023/06/12 05:39:49;;;;;;;6.55;5.95;;;;;;;23.46;40.95;99830.63;4963260;28;20050;-88
2023/06/12 05:42:15;;;;;;;6.40;5.53;;;;;;;23.49;40.35;99837.47;4927660;28;20059;-88
2023/06/12 05:44:43;;;;;;;8.80;6.18;;;;;;;23.42;40.58;99834.81;4958140;28;20047;-88
2023/06/12 05:47:10;;;;;;;6.70;6.10;;;;;;;23.42;40.51;99834.81;4934419;28;20052;-88
2023/06/12 05:49:37;;;;;;;7.95;6.38;;;;;;;23.45;40.72;99833.53;4918664;28;20054;-87
2023/06/12 05:52:07;;;;;;;9.15;5.72;;;;;;;23.45;41.01;99833.53;4916813;28;20047;-88
2023/06/12 05:54:34;;;;;;;8.70;6.40;;;;;;;23.49;40.74;99832.88;4915326;28;20051;-88
2023/06/12 05:57:02;;;;;;;7.18;6.30;;;;;;;23.52;40.79;99835.16;4932365;28;20046;-88
2023/06/12 05:59:30;;;;;;;8.68;5.88;;;;;;;23.46;40.63;99830.63;4940752;28;20429;-88
2023/06/12 06:01:59;;;;;;;8.25;6.53;;;;;;;23.49;40.54;99830.19;4940822;28;20514;-88
2023/06/12 06:04:27;;;;;;;12.02;6.18;;;;;;;23.47;40.90;99834.16;4926137;28;20495;-87
2023/06/12 06:06:55;;;;;;;10.43;6.22;;;;;;;23.49;40.87;99832.88;4934991;28;20043;-88
2023/06/12 06:09:22;;;;;;;8.98;6.40;;;;;;;23.50;40.76;99829.13;4939629;28;20042;-88
2023/06/12 06:11:48;;;;;;;10.27;6.25;;;;;;;23.50;41.14;99823.69;4932064;28;20321;-88
2023/06/12 06:14:17;;;;;;;8.25;6.57;;;;;;;23.57;40.99;99820.94;4950176;28;20142;-87
2023/06/12 06:16:45;;;;;;;8.00;6.50;;;;;;;23.53;41.09;99828.66;4955179;28;20050;-87
2023/06/12 06:19:28;;;;;;;10.35;6.85;;;;;;;23.55;41.38;99837.41;4960925;28;20050;-87
2023/06/12 06:21:55;;;;;;;11.32;6.57;;;;;;;23.40;41.07;99835.00;4911277;28;20054;-88
2023/06/12 06:24:22;;;;;;;6.90;6.22;;;;;;;23.47;41.38;99832.28;4935106;28;20428;-88
2023/06/12 06:26:49;;;;;;;7.90;6.60;;;;;;;23.47;41.66;99834.97;4953088;28;20473;-88
2023/06/12 06:29:18;;;;;;;8.10;6.22;;;;;;;23.51;41.69;99838.91;4931366;28;20093;-87
2023/06/12 06:31:44;;;;;;;8.50;7.00;;;;;;;23.53;42.22;99836.78;4966365;28;20055;-87
2023/06/12 06:34:12;;;;;;;11.02;6.05;;;;;;;23.57;42.42;99846.16;4950629;28;20085;-87
2023/06/12 06:36:39;;;;;;;6.85;6.15;;;;;;;23.56;42.63;99844.50;4912016;28;20058;-88
2023/06/12 06:39:06;;;;;;;7.22;6.35;;;;;;;23.57;42.45;99843.44;4916777;28;20047;-87
2023/06/12 06:41:33;;;;;;;8.20;6.50;;;;;;;23.56;43.13;99851.78;4935174;28;20553;-87
2023/06/12 06:44:00;;;;;;;7.38;6.60;;;;;;;23.59;42.72;99851.38;4948667;28;20207;-88
2023/06/12 06:46:28;;;;;;;6.78;6.07;;;;;;;23.63;43.01;99844.44;4924854;28;20051;-87
2023/06/12 06:48:59;;;;;;;7.40;6.28;;;;;;;23.76;43.25;99840.81;4927270;28;20039;-86
2023/06/12 06:51:28;;;;;;;7.65;6.88;;;;;;;23.68;43.25;99846.50;4911345;28;20559;-88
2023/06/12 06:53:55;;;;;;;7.55;6.43;;;;;;;23.72;43.22;99845.88;4927966;28;20074;-87
2023/06/12 06:56:22;;;;;;;7.38;6.57;;;;;;;23.54;43.83;99853.91;4938978;28;20595;-87
2023/06/12 06:58:48;;;;;;;8.73;7.15;;;;;;;23.59;43.71;99846.78;4948102;28;20043;-87
2023/06/12 07:01:17;;;;;;;8.65;6.40;;;;;;;23.58;43.51;99833.44;4926575;28;20059;-88
2023/06/12 07:03:44;;;;;;;9.23;6.70;;;;;;;23.68;43.37;99835.66;4927292;28;20480;-87
2023/06/12 07:06:11;;;;;;;8.15;6.78;;;;;;;23.70;43.48;99837.09;4928976;28;20475;-87
2023/06/12 07:08:39;;;;;;;10.02;6.82;;;;;;;23.76;44.05;99840.81;4915627;28;20422;-86
2023/06/12 07:11:06;;;;;;;6.85;6.15;;;;;;;23.80;43.49;99831.19;4926472;28;20047;-87
2023/06/12 07:13:33;;;;;;;7.00;6.40;;;;;;;23.84;43.54;99827.00;4951560;28;20042;-87
2023/06/12 07:16:00;;;;;;;7.50;6.43;;;;;;;23.95;44.67;99834.41;4930838;28;20050;-87
2023/06/12 07:18:29;;;;;;;6.65;5.95;;;;;;;23.95;44.11;99826.25;4932760;28;20106;-88
2023/06/12 07:20:55;;;;;;;7.70;6.80;;;;;;;24.04;43.98;99835.78;4952004;28;20050;-87
2023/06/12 07:23:24;;;;;;;7.03;6.10;;;;;;;24.10;43.68;99831.34;4942593;28;20051;-88
2023/06/12 07:25:51;;;;;;;6.93;6.28;;;;;;;24.12;43.89;99826.53;4949436;28;20047;-87
2023/06/12 07:28:18;;;;;;;7.05;6.35;;;;;;;24.14;43.95;99829.00;4930010;28;20043;-88
2023/06/12 07:30:45;;;;;;;7.05;6.35;;;;;;;24.19;44.10;99832.69;4929318;28;20047;-87
2023/06/12 07:33:14;;;;;;;7.80;6.35;;;;;;;24.19;44.28;99829.13;4919978;28;20054;-86
2023/06/12 07:35:43;;;;;;;7.43;6.07;;;;;;;24.17;44.28;99826.69;4934224;28;20047;-88
2023/06/12 07:38:11;;;;;;;6.40;5.80;;;;;;;24.23;44.66;99835.78;4937364;28;20068;-88
2023/06/12 07:40:38;;;;;;;8.25;6.32;;;;;;;24.27;44.49;99829.69;4937930;28;20055;-87
2023/06/12 07:43:06;;;;;;;11.10;6.72;;;;;;;24.30;44.09;99839.28;4951978;28;20125;-87
2023/06/12 07:45:36;;;;;;;9.27;6.60;;;;;;;24.29;44.31;99834.88;4922244;28;20421;-87
2023/06/12 07:48:03;;;;;;;7.20;6.50;;;;;;;24.30;44.64;99830.28;4898760;28;20478;-88
2023/06/12 07:50:35;;;;;;;7.05;6.13;;;;;;;24.27;44.80;99821.56;4929704;28;20440;-87
2023/06/12 07:53:01;;;;;;;10.32;6.97;;;;;;;24.33;44.77;99827.13;4929223;28;20379;-88
2023/06/12 07:55:30;;;;;;;8.38;6.30;;;;;;;24.36;44.35;99815.81;4922388;28;20131;-87
2023/06/12 07:57:58;;;;;;;7.80;6.20;;;;;;;24.41;44.88;99814.06;4954117;28;20413;-87
2023/06/12 08:00:26;;;;;;;7.95;6.65;;;;;;;24.43;44.65;99811.16;4948636;28;20046;-88
2023/06/12 08:02:57;;;;;;;9.38;6.40;;;;;;;24.45;44.58;99812.59;4939407;28;20042;-88
2023/06/12 08:05:37;;;;;;;7.03;6.32;;;;;;;24.46;44.76;99814.25;4932565;28;20114;-87
2023/06/12 08:08:10;;;;;;;7.43;6.30;;;;;;;24.47;44.39;99810.50;4934429;28;20043;-87
2023/06/12 08:10:37;;;;;;;8.00;6.88;;;;;;;24.47;44.43;99806.94;4913852;28;20123;-87
2023/06/12 08:13:04;;;;;;;7.88;6.43;;;;;;;24.51;44.83;99805.44;4958274;28;20043;-87
2023/06/12 08:15:32;;;;;;;8.10;6.50;;;;;;;24.59;44.59;99809.72;4930025;28;20106;-87
2023/06/12 08:17:59;;;;;;;7.63;6.80;;;;;;;24.58;44.72;99803.47;4947303;28;20054;-88
2023/06/12 08:20:27;;;;;;;7.90;6.78;;;;;;;24.60;44.68;99800.50;4962399;28;20042;-88
2023/06/12 08:22:56;;;;;;;7.70;6.80;;;;;;;24.64;44.59;99807.97;4960336;28;20050;-87
2023/06/12 08:25:23;;;;;;;10.32;6.65;;;;;;;24.61;44.08;99807.63;4939048;28;20051;-87
2023/06/12 08:27:54;;;;;;;8.45;7.18;;;;;;;24.64;44.07;99810.69;4942740;28;20475;-87
2023/06/12 08:30:21;;;;;;;7.80;7.00;;;;;;;24.55;44.57;99803.09;4947003;28;20245;-86
2023/06/12 08:32:49;;;;;;;8.27;6.63;;;;;;;24.53;44.34;99802.50;4933678;28;20134;-87
2023/06/12 08:35:16;;;;;;;8.10;7.32;;;;;;;24.55;44.50;99803.09;4944571;28;20688;-88
2023/06/12 08:37:46;;;;;;;6.75;6.05;;;;;;;24.60;44.36;99792.38;4931546;28;20302;-88
2023/06/12 08:40:13;;;;;;;6.60;5.88;;;;;;;24.61;44.17;99792.16;4934225;28;20052;-87
2023/06/12 08:42:44;;;;;;;6.90;6.30;;;;;;;24.64;44.51;99793.56;4912847;28;20075;-87
2023/06/12 08:45:15;;;;;;;7.15;6.45;;;;;;;24.65;44.85;99793.38;4918453;28;20527;-88
2023/06/12 08:47:48;;;;;;;7.15;6.55;;;;;;;24.69;44.24;99791.00;4962018;28;20118;-87
2023/06/12 08:50:19;;;;;;;7.30;6.60;;;;;;;24.64;44.63;99799.00;4948807;28;20051;-87
2023/06/12 08:52:47;;;;;;;8.18;6.72;;;;;;;24.70;44.54;99792.66;4944123;28;20043;-88
2023/06/12 08:55:17;;;;;;;7.10;6.50;;;;;;;24.66;44.15;99786.84;4962807;28;20415;-88
2023/06/12 08:57:44;;;;;;;9.50;6.95;;;;;;;24.57;44.31;99796.38;4944844;28;20106;-88
2023/06/12 09:00:13;;;;;;;8.07;6.93;;;;;;;24.54;44.23;99785.97;4930260;28;20067;-87
2023/06/12 09:02:44;;;;;;;6.82;6.13;;;;;;;24.59;44.55;99786.13;4928593;28;20038;-87
2023/06/12 09:05:15;;;;;;;8.20;6.07;;;;;;;24.71;44.71;99790.78;4939996;28;20142;-87
2023/06/12 09:07:44;;;;;;;7.35;6.65;;;;;;;24.77;44.38;99784.44;4932818;28;20502;-88
2023/06/12 09:10:11;;;;;;;7.65;6.85;;;;;;;24.85;44.33;99779.47;4924260;28;20046;-87
2023/06/12 09:12:43;;;;;;;7.35;6.60;;;;;;;24.94;44.06;99774.56;4937593;28;20578;-87
2023/06/12 09:15:20;;;;;;;6.18;5.43;;;;;;;24.91;43.19;99783.19;4926713;28;20160;-88
2023/06/12 09:17:48;;;;;;;8.45;7.03;;;;;;;24.88;42.83;99781.75;4930316;28;20047;-87
2023/06/12 09:20:24;;;;;;;9.07;6.20;;;;;;;24.82;43.15;99779.13;4929933;28;20051;-86
2023/06/12 09:23:07;;;;;;;8.23;7.50;;;;;;;24.75;43.14;99770.25;4932989;28;20043;-88
2023/06/12 09:25:36;;;;;;;9.63;6.43;;;;;;;24.73;42.49;99781.34;4965280;28;20058;-87
2023/06/12 09:28:03;;;;;;;7.13;6.45;;;;;;;24.71;42.10;99786.19;4970151;28;20440;-87
2023/06/12 09:30:31;;;;;;;7.22;6.53;;;;;;;24.71;42.37;99794.31;4933067;28;20061;-88
2023/06/12 09:33:01;;;;;;;7.28;6.55;;;;;;;24.72;41.25;99778.84;4942521;28;20102;-87
2023/06/12 09:35:28;;;;;;;7.03;6.00;;;;;;;24.80;40.94;99787.50;4930605;28;20055;-89
2023/06/12 09:37:58;;;;;;;6.75;6.07;;;;;;;24.71;39.32;99797.03;4956614;28;20078;-87
2023/06/12 09:40:25;;;;;;;7.10;5.55;;;;;;;24.67;39.73;99802.09;4913459;28;20066;-88
2023/06/12 09:42:51;;;;;;;6.25;5.65;;;;;;;24.71;39.46;99791.59;4946845;28;20126;-88
2023/06/12 09:45:20;;;;;;;6.80;6.13;;;;;;;24.79;38.64;99783.13;4948161;28;20090;-88
2023/06/12 09:47:49;;;;;;;6.60;5.90;;;;;;;24.87;39.11;99781.97;4912380;28;20162;-87
2023/06/12 09:50:18;;;;;;;6.55;5.95;;;;;;;24.84;38.42;99791.41;4932569;28;20106;-86
2023/06/12 09:52:49;;;;;;;7.35;6.63;;;;;;;24.84;38.85;99761.53;4943072;28;20056;-86
2023/06/12 09:55:17;;;;;;;6.78;6.10;;;;;;;24.99;39.73;99792.91;4913178;28;20055;-88
2023/06/12 09:57:50;;;;;;;6.55;5.85;;;;;;;24.88;38.03;99775.47;4937759;28;20047;-88
2023/06/12 10:00:17;;;;;;;6.95;5.35;;;;;;;24.94;38.05;99779.19;4944828;28;20047;-88
2023/06/12 10:03:00;;;;;;;10.18;5.97;;;;;;;24.84;37.50;99774.31;4936048;28;20047;-87
2023/06/12 10:05:31;;;;;;;;;;;;;;;24.67;36.77;99766.78;4930028;28;20043;-86
2023/06/12 10:07:59;;;;;;;7.00;5.90;;;;;;;24.84;36.73;99783.28;4936698;28;20264;-88
2023/06/12 10:10:27;;;;;;;5.75;5.00;;;;;;;24.82;36.85;99770.97;4911155;28;20202;-86
2023/06/12 10:12:55;;;;;;;9.63;5.90;;;;;;;24.82;36.70;99774.53;4918035;28;20414;-88
2023/06/12 10:15:22;;;;;;;6.78;5.90;;;;;;;24.81;36.02;99764.72;4945173;28;20047;-86
2023/06/12 10:17:51;;;;;;;9.75;6.63;;;;;;;24.77;36.20;99768.13;4940011;28;20055;-85
2023/06/12 10:20:19;;;;;;;8.85;5.65;;;;;;;24.76;37.08;99764.59;4938803;28;20107;-86
2023/06/12 10:22:47;;;;;;;6.72;6.03;;;;;;;24.75;37.34;99748.53;4943747;28;20134;-86
2023/06/12 10:25:14;;;;;;;8.05;6.65;;;;;;;24.77;36.96;99760.81;4929308;28;20111;-86
2023/06/12 10:27:42;;;;;;;7.82;6.43;;;;;;;24.77;37.34;99749.13;4953724;28;20059;-86
2023/06/12 10:30:11;;;;;;;7.60;6.10;;;;;;;24.84;37.31;99766.16;4947092;28;20065;-87
2023/06/12 10:32:42;;;;;;;6.00;5.40;;;;;;;24.82;37.04;99744.66;4956648;28;20042;-86
2023/06/12 10:35:10;;;;;;;6.45;5.47;;;;;;;24.89;36.89;99750.00;4952295;28;20043;-86
2023/06/12 10:37:46;;;;;;;7.25;6.30;;;;;;;24.83;36.92;99740.88;4920959;28;20115;-86
2023/06/12 10:40:19;;;;;;;7.18;5.82;;;;;;;24.95;37.23;99737.38;4927275;28;20054;-86
2023/06/12 10:43:06;;;;;;;6.35;5.68;;;;;;;24.97;37.26;99733.34;4937516;28;20047;-86
2023/06/12 10:45:36;;;;;;;7.53;6.35;;;;;;;25.04;36.98;99736.81;4935923;28;20047;-87
2023/06/12 10:48:06;;;;;;;6.80;6.13;;;;;;;25.04;36.88;99746.84;4920565;28;20047;-85
2023/06/12 10:50:44;;;;;;;6.35;5.65;;;;;;;25.07;36.82;99740.94;4941126;28;20541;-86
2023/06/12 10:53:13;;;;;;;6.72;6.05;;;;;;;25.10;37.23;99718.72;4930025;28;20523;-86
2023/06/12 10:55:42;;;;;;;8.32;6.07;;;;;;;25.15;37.30;99710.72;4920251;28;20051;-86
2023/06/12 10:58:18;;;;;;;6.70;5.82;;;;;;;25.17;36.86;99713.22;4928562;28;20055;-87
2023/06/12 11:00:46;;;;;;;8.25;6.13;;;;;;;25.08;35.77;99727.09;4909455;28;20047;-86
2023/06/12 11:03:29;;;;;;;6.20;5.60;;;;;;;24.94;35.32;99716.72;4910192;28;20054;-86
2023/06/12 11:06:00;;;;;;;8.43;5.78;;;;;;;25.08;35.87;99718.97;4935475;28;20050;-87
2023/06/12 11:08:28;;;;;;;6.88;6.18;;;;;;;25.10;35.64;99705.16;4933191;28;20096;-87
2023/06/12 11:10:55;;;;;;;7.20;6.20;;;;;;;25.08;36.34;99718.13;4911308;28;20085;-86
2023/06/12 11:13:23;;;;;;;10.95;6.40;;;;;;;25.12;36.28;99709.28;4941694;28;20074;-86
2023/06/12 11:15:51;;;;;;;5.70;5.15;;;;;;;25.13;36.39;99701.97;4931338;28;20051;-86
2023/06/12 11:18:18;;;;;;;7.00;5.82;;;;;;;25.21;37.21;99708.97;4944431;28;20070;-86
2023/06/12 11:20:55;;;;;;;7.30;6.43;;;;;;;25.17;35.99;99705.09;4910206;28;20043;-86
2023/06/12 11:23:27;;;;;;;8.52;6.05;;;;;;;25.17;35.74;99694.22;4941116;28;20071;-87
2023/06/12 11:25:56;;;;;;;7.72;6.93;;;;;;;25.10;36.38;99711.41;4926484;28;20047;-85
2023/06/12 11:28:23;;;;;;;8.77;6.88;;;;;;;25.14;36.52;99703.63;4943160;28;20451;-86
2023/06/12 11:30:51;;;;;;;6.72;5.93;;;;;;;25.17;36.48;99707.81;4955843;28;20058;-86
2023/06/12 11:33:36;;;;;;;7.03;5.93;;;;;;;25.24;36.07;99698.47;4952157;28;20093;-85
2023/06/12 11:36:03;;;;;;;6.57;5.97;;;;;;;25.33;36.72;99693.50;4964054;28;20042;-87
2023/06/12 11:38:30;;;;;;;6.35;5.75;;;;;;;25.39;36.97;99680.84;4932507;28;20459;-86
2023/06/12 11:41:00;;;;;;;7.63;5.95;;;;;;;25.49;36.78;99692.81;4963212;28;20510;-86
2023/06/12 11:43:27;;;;;;;7.30;6.53;;;;;;;25.52;36.34;99684.19;4969903;28;20050;-86
2023/06/12 11:46:02;;;;;;;6.95;6.25;;;;;;;25.59;37.04;99691.38;4953142;28;20509;-87
2023/06/12 11:48:31;;;;;;;7.00;6.28;;;;;;;25.68;36.33;99679.91;4927166;28;20113;-87
2023/06/12 11:51:01;;;;;;;6.65;6.05;;;;;;;25.71;36.49;99675.88;4958340;28;20039;-87
2023/06/12 11:53:30;;;;;;;6.78;6.07;;;;;;;25.74;37.29;99678.09;4944466;28;20075;-86
2023/06/12 11:56:03;;;;;;;7.93;5.80;;;;;;;25.77;36.41;99681.19;4955054;28;20038;-86
2023/06/12 11:58:35;;;;;;;7.05;6.07;;;;;;;25.75;36.32;99679.78;4927356;28;20059;-87
2023/06/12 12:01:12;;;;;;;7.05;5.75;;;;;;;25.70;36.39;99666.88;4931019;28;20062;-86
2023/06/12 12:03:44;;;;;;;9.25;6.22;;;;;;;25.69;36.54;99661.69;4929004;28;20051;-86
2023/06/12 12:06:13;;;;;;;6.70;6.00;;;;;;;25.71;36.80;99670.44;4947104;28;20102;-86
2023/06/12 12:08:40;;;;;;;6.65;6.05;;;;;;;25.66;36.67;99668.41;4938391;28;20406;-86
2023/06/12 12:11:21;;;;;;;8.88;6.65;;;;;;;25.59;36.30;99665.00;4927568;28;20047;-87
2023/06/12 12:13:49;;;;;;;6.78;6.18;;;;;;;25.64;36.81;99667.00;4933696;28;20058;-86
2023/06/12 12:16:21;;;;;;;6.75;5.95;;;;;;;25.67;36.91;99659.22;4940764;28;20047;-87
2023/06/12 12:18:51;;;;;;;6.63;5.93;;;;;;;25.71;37.03;99659.56;4948388;28;20070;-87